Time;durP1;ratioP1;P1;durP2;ratioP2;P2;SDS_P1;SDS_P2;PMS_P1;PMS_P2;Temp;Humidity;BMP_temperature;BMP_pressure;BME280_temperature;BME280_humidity;BME280_pressure;Samples;Min_cycle;Max_cycle;Signal;HPM_P1;HPM_P2
2024/01/19 00:01:00;;;;;;;39.03;19.92;;;;;;;;;;5103540;28;20535;-78
2024/01/19 00:03:25;;;;;;;31.75;17.00;;;5.40;99.90;;;;;;5103936;28;20254;-79
2024/01/19 00:05:53;;;;;;;43.05;21.23;;;5.40;99.90;;;;;;5085498;28;20051;-77
2024/01/19 00:08:18;;;;;;;42.38;20.98;;;5.30;99.90;;;;;;5084154;28;20338;-73
2024/01/19 00:10:45;;;;;;;32.60;15.23;;;;;;;;;;5101736;28;20032;-73
2024/01/19 00:13:12;;;;;;;38.70;19.42;;;5.00;99.90;;;;;;5102576;28;20023;-73
2024/01/19 00:15:38;;;;;;;29.35;14.93;;;;;;;;;;5102514;28;20347;-74
2024/01/19 00:18:03;;;;;;;46.60;21.30;;;4.60;99.90;;;;;;5102901;28;20058;-76
2024/01/19 00:20:29;;;;;;;45.05;21.52;;;;;;;;;;5103531;28;20016;-75
2024/01/19 00:22:56;;;;;;;30.60;12.20;;;;;;;;;;5102956;28;20456;-76
2024/01/19 00:25:22;;;;;;;35.95;15.48;;;;;;;;;;5103301;28;20020;-74
2024/01/19 00:27:48;;;;;;;33.85;16.25;;;;;;;;;;5103519;28;20012;-75
2024/01/19 00:30:14;;;;;;;34.72;17.73;;;;;;;;;;5103827;28;20051;-76
2024/01/19 00:32:40;;;;;;;29.60;14.10;;;;;;;;;;5102758;28;20012;-75
2024/01/19 00:35:06;;;;;;;26.17;14.48;;;;;;;;;;5102720;28;20023;-75
2024/01/19 00:37:32;;;;;;;21.60;11.18;;;;;;;;;;5102667;28;20031;-75
2024/01/19 00:39:58;;;;;;;16.27;7.93;;;;;;;;;;5102527;28;20335;-74
2024/01/19 00:42:25;;;;;;;16.83;10.00;;;;;;;;;;5101651;28;20115;-75
2024/01/19 00:44:51;;;;;;;14.90;8.52;;;;;;;;;;5101813;28;20038;-76
2024/01/19 00:47:17;;;;;;;25.00;13.07;;;;;;;;;;5100932;28;20032;-72
2024/01/19 00:49:43;;;;;;;26.90;12.55;;;;;;;;;;5100810;28;20027;-73
2024/01/19 00:52:09;;;;;;;18.02;9.88;;;;;;;;;;5103593;28;20055;-73
2024/01/19 00:54:35;;;;;;;21.48;11.82;;;2.70;99.90;;;;;;5105147;28;20312;-73
2024/01/19 00:57:02;;;;;;;18.33;8.73;;;;;;;;;;5104746;28;20040;-72
2024/01/19 00:59:28;;;;;;;22.88;11.85;;;;;;;;;;5104664;28;20055;-72
2024/01/19 01:01:54;;;;;;;27.38;13.90;;;;;;;;;;5097317;28;20052;-72
2024/01/19 01:04:20;;;;;;;20.05;10.27;;;;;;;;;;5089487;28;20038;-73
2024/01/19 01:06:46;;;;;;;18.75;8.82;;;;;;;;;;5103209;28;20023;-73
2024/01/19 01:09:12;;;;;;;22.42;11.25;;;;;;;;;;5093262;28;20028;-72
2024/01/19 01:11:38;;;;;;;20.05;9.82;;;;;;;;;;5104560;28;20355;-73
2024/01/19 01:14:04;;;;;;;15.80;8.02;;;;;;;;;;5104595;28;20093;-73
2024/01/19 01:16:30;;;;;;;23.80;11.57;;;;;;;;;;5104358;28;20040;-73
2024/01/19 01:18:57;;;;;;;29.33;15.45;;;;;;;;;;5104551;28;20336;-73
2024/01/19 01:21:23;;;;;;;29.42;15.98;;;;;;;;;;5086433;28;20338;-73
2024/01/19 01:23:49;;;;;;;31.75;15.13;;;;;;;;;;5104409;28;20021;-73
2024/01/19 01:26:15;;;;;;;31.60;16.15;;;;;;;;;;5104330;28;20028;-73
2024/01/19 01:28:41;;;;;;;34.28;16.85;;;;;;;;;;5103393;28;20020;-73
2024/01/19 01:31:07;;;;;;;31.00;15.60;;;;;;;;;;5104411;28;20586;-73
2024/01/19 01:33:33;;;;;;;30.75;16.27;;;;;;;;;;5104163;28;20024;-73
2024/01/19 01:35:59;;;;;;;31.45;15.55;;;;;;;;;;5102951;28;20066;-73
2024/01/19 01:38:25;;;;;;;28.40;13.25;;;;;;;;;;5103862;28;20028;-73
2024/01/19 01:40:51;;;;;;;33.50;16.27;;;;;;;;;;5104103;28;20358;-73
2024/01/19 01:43:24;;;;;;;30.70;15.38;;;1.80;99.90;;;;;;5103737;28;20081;-73
2024/01/19 01:45:50;;;;;;;18.92;8.10;;;;;;;;;;5104041;28;20024;-73
2024/01/19 01:48:16;;;;;;;31.92;16.02;;;;;;;;;;5103954;28;20078;-73
2024/01/19 01:50:42;;;;;;;22.67;11.55;;;;;;;;;;5103745;28;20039;-73
2024/01/19 01:53:09;;;;;;;30.58;15.63;;;;;;;;;;5103811;28;20028;-73
2024/01/19 01:55:35;;;;;;;29.20;13.80;;;;;;;;;;5103655;28;20047;-73
2024/01/19 01:58:01;;;;;;;38.17;15.18;;;;;;;;;;5103704;28;20032;-73
2024/01/19 02:00:30;;;;;;;33.25;15.82;;;1.60;99.90;;;;;;5103505;28;20054;-73
2024/01/19 02:02:57;;;;;;;19.53;9.70;;;1.50;99.90;;;;;;5103631;28;20039;-73
2024/01/19 02:05:23;;;;;;;28.27;13.25;;;;;;;;;;5103703;28;20576;-73
2024/01/19 02:07:49;;;;;;;31.48;16.00;;;;;;;;;;5085292;28;20092;-73
2024/01/19 02:10:15;;;;;;;28.92;13.27;;;;;;;;;;5103604;28;20020;-73
2024/01/19 02:12:41;;;;;;;34.33;16.25;;;;;;;;;;5103290;28;20091;-73
2024/01/19 02:15:18;;;;;;;31.23;15.80;;;1.60;99.90;;;;;;5103333;28;20303;-73
2024/01/19 02:17:44;;;;;;;35.08;17.83;;;;;;;;;;5103317;28;20031;-73
2024/01/19 02:20:11;;;;;;;34.65;16.33;;;1.30;99.90;;;;;;5103266;28;20020;-73
2024/01/19 02:22:42;;;;;;;18.58;9.50;;;1.50;99.90;;;;;;5085042;28;20232;-72
2024/01/19 02:25:08;;;;;;;31.30;15.68;;;1.60;99.90;;;;;;5084968;28;20062;-73
2024/01/19 02:27:34;;;;;;;33.90;17.25;;;;;;;;;;5103039;28;20254;-73
2024/01/19 02:30:01;;;;;;;34.13;16.95;;;;;;;;;;5103008;28;20012;-72
2024/01/19 02:32:27;;;;;;;35.35;18.38;;;;;;;;;;5105737;28;20047;-74
2024/01/19 02:34:53;;;;;;;35.50;17.30;;;;;;;;;;5085391;28;20024;-79
2024/01/19 02:37:19;;;;;;;32.58;15.00;;;;;;;;;;5069533;28;20040;-80
2024/01/19 02:39:45;;;;;;;34.85;17.65;;;;;;;;;;5086917;28;20044;-79
2024/01/19 02:42:11;;;;;;;35.92;17.88;;;1.50;99.90;;;;;;5092340;23;20062;-80
2024/01/19 02:44:37;;;;;;;32.30;12.02;;;;;;;;;;5086810;28;20028;-80
2024/01/19 02:47:03;;;;;;;34.67;17.10;;;;;;;;;;5087001;28;20024;-84
2024/01/19 02:49:30;;;;;;;35.70;16.67;;;;;;;;;;5086439;28;20232;-74
2024/01/19 02:51:56;;;;;;;30.30;15.27;;;;;;;;;;5087029;28;20024;-81
2024/01/19 02:54:22;;;;;;;30.30;14.00;;;;;;;;;;5087135;28;20023;-83
2024/01/19 02:56:48;;;;;;;31.45;15.32;;;;;;;;;;5086761;28;20055;-84
2024/01/19 02:59:14;;;;;;;27.65;14.85;;;;;;;;;;5086346;28;20083;-75
2024/01/19 03:01:40;;;;;;;31.48;15.40;;;;;;;;;;5076608;28;20032;-75
2024/01/19 03:04:06;;;;;;;31.60;14.75;;;;;;;;;;5065670;28;20110;-75
2024/01/19 03:06:32;;;;;;;28.98;14.05;;;;;;;;;;5064852;28;20047;-75
2024/01/19 03:08:58;;;;;;;24.85;13.75;;;;;;;;;;5063639;28;20044;-75
2024/01/19 03:11:24;;;;;;;24.95;13.50;;;;;;;;;;5063704;28;20201;-75
2024/01/19 03:13:52;;;;;;;22.05;11.10;;;;;;;;;;5064024;28;20028;-75
2024/01/19 03:16:19;;;;;;;27.25;12.35;;;;;;;;;;5045937;28;20033;-74
2024/01/19 03:18:45;;;;;;;22.52;11.75;;;;;;;;;;5062446;28;20021;-73
2024/01/19 03:21:12;;;;;;;20.27;9.85;;;1.50;99.90;;;;;;5061769;28;20051;-73
2024/01/19 03:23:38;;;;;;;23.70;12.43;;;;;;;;;;5061922;28;20048;-73
2024/01/19 03:26:05;;;;;;;24.75;12.57;;;1.40;99.90;;;;;;5061968;28;20017;-73
2024/01/19 03:28:31;;;;;;;24.98;12.70;;;;;;;;;;5061748;28;20020;-74
2024/01/19 03:30:57;;;;;;;25.63;12.77;;;;;;;;;;5080825;28;20016;-74
2024/01/19 03:33:24;;;;;;;17.55;8.10;;;;;;;;;;5081954;28;20025;-74
2024/01/19 03:35:50;;;;;;;26.52;12.40;;;;;;;;;;5082891;28;20024;-75
2024/01/19 03:38:17;;;;;;;21.75;11.43;;;;;;;;;;5083512;28;20095;-75
2024/01/19 03:40:43;;;;;;;22.48;12.13;;;;;;;;;;5083089;28;20035;-74
2024/01/19 03:43:10;;;;;;;25.08;13.25;;;1.40;99.90;;;;;;5082560;28;20240;-74
2024/01/19 03:45:36;;;;;;;19.15;10.77;;;;;;;;;;5082382;28;20051;-75
2024/01/19 03:48:03;;;;;;;24.27;11.30;;;1.40;99.90;;;;;;5083657;28;20057;-78
2024/01/19 03:50:29;;;;;;;17.15;8.55;;;;;;;;;;5065217;28;20245;-77
2024/01/19 03:52:55;;;;;;;27.95;12.73;;;;;;;;;;5083756;28;20044;-75
2024/01/19 03:55:21;;;;;;;22.10;11.18;;;1.40;99.90;;;;;;5083093;28;20029;-76
2024/01/19 03:57:47;;;;;;;19.27;9.82;;;;;;;;;;5083388;28;20352;-75
2024/01/19 04:00:13;;;;;;;20.35;10.38;;;;;;;;;;5083327;28;20471;-75
2024/01/19 04:02:39;;;;;;;21.27;9.73;;;;;;;;;;5083391;28;20035;-74
2024/01/19 04:05:06;;;;;;;21.33;9.95;;;1.40;99.90;;;;;;5083796;28;20020;-74
2024/01/19 04:07:32;;;;;;;25.98;13.45;;;;;;;;;;5083289;28;20025;-74
2024/01/19 04:09:58;;;;;;;23.50;11.55;;;;;;;;;;5083124;28;20016;-75
2024/01/19 04:12:24;;;;;;;22.25;12.15;;;;;;;;;;5083836;28;20038;-74
2024/01/19 04:14:50;;;;;;;23.25;12.52;;;;;;;;;;5083516;28;20028;-75
2024/01/19 04:17:16;;;;;;;22.20;11.35;;;;;;;;;;5082760;28;20040;-75
2024/01/19 04:19:42;;;;;;;20.90;10.32;;;;;;;;;;5082813;28;20020;-77
2024/01/19 04:22:09;;;;;;;19.75;11.02;;;;;;;;;;5082877;28;20216;-75
2024/01/19 04:24:35;;;;;;;22.80;11.93;;;;;;;;;;5082373;28;20091;-77
2024/01/19 04:27:02;;;;;;;23.52;11.43;;;1.40;99.90;;;;;;5081872;28;20088;-74
2024/01/19 04:29:28;;;;;;;28.92;13.27;;;;;;;;;;5083247;28;20313;-76
2024/01/19 04:31:55;;;;;;;27.50;13.70;;;;;;;;;;5083376;28;20029;-74
2024/01/19 04:34:22;;;;;;;21.45;10.70;;;;;;;;;;5081735;28;20396;-74
2024/01/19 04:36:48;;;;;;;25.73;12.40;;;;;;;;;;5081626;28;20028;-74
2024/01/19 04:39:14;;;;;;;23.52;11.43;;;;;;;;;;5081915;28;20016;-74
2024/01/19 04:41:40;;;;;;;15.85;8.75;;;;;;;;;;5081684;28;20056;-75
2024/01/19 04:44:09;;;;;;;23.27;11.02;;;;;;;;;;5081936;28;20032;-75
2024/01/19 04:46:35;;;;;;;22.17;11.32;;;;;;;;;;5081599;28;20086;-75
2024/01/19 04:49:01;;;;;;;13.65;7.63;;;;;;;;;;5081681;28;20023;-74
2024/01/19 04:51:27;;;;;;;24.20;9.48;;;;;;;;;;5081877;28;20026;-74
2024/01/19 04:53:53;;;;;;;22.00;11.52;;;;;;;;;;5082396;28;20025;-75
2024/01/19 04:56:19;;;;;;;16.73;8.90;;;;;;;;;;5064380;28;20048;-75
2024/01/19 04:58:45;;;;;;;15.07;8.15;;;;;;;;;;5082651;28;20051;-79
2024/01/19 05:01:11;;;;;;;19.02;9.27;;;;;;;;;;5081305;28;20021;-74
2024/01/19 05:03:37;;;;;;;21.08;9.85;;;;;;;;;;5082057;28;20055;-74
2024/01/19 05:06:03;;;;;;;19.35;8.18;;;;;;;;;;5081121;28;20048;-75
2024/01/19 05:08:30;;;;;;;17.30;8.88;;;1.20;99.90;;;;;;5081829;28;20309;-79
2024/01/19 05:10:56;;;;;;;15.10;8.52;;;;;;;;;;5082807;28;20074;-80
2024/01/19 05:13:22;;;;;;;15.73;7.95;;;;;;;;;;5064406;28;20029;-75
2024/01/19 05:15:48;;;;;;;18.10;8.93;;;;;;;;;;5081074;28;20028;-77
2024/01/19 05:18:14;;;;;;;19.33;9.07;;;;;;;;;;5063195;28;20047;-75
2024/01/19 05:20:40;;;;;;;18.80;9.80;;;;;;;;;;5081033;28;20017;-74
2024/01/19 05:23:07;;;;;;;14.13;8.27;;;;;;;;;;5080579;28;20328;-78
2024/01/19 05:25:33;;;;;;;20.55;9.80;;;;;;;;;;5044884;28;20035;-80
2024/01/19 05:27:59;;;;;;;13.32;6.75;;;;;;;;;;5062619;28;20025;-81
2024/01/19 05:30:25;;;;;;;16.75;9.15;;;;;;;;;;5061681;28;20017;-75
2024/01/19 05:32:52;;;;;;;17.42;8.90;;;;;;;;;;5062716;28;20029;-78
2024/01/19 05:35:19;;;;;;;16.95;9.07;;;;;;;;;;5044129;28;20025;-77
2024/01/19 05:37:45;;;;;;;18.45;8.93;;;;;;;;;;5064267;28;20055;-77
2024/01/19 05:40:11;;;;;;;17.33;8.85;;;;;;;;;;5049057;28;20025;-76
2024/01/19 05:42:37;;;;;;;20.95;8.88;;;;;;;;;;5085207;28;20165;-75
2024/01/19 05:45:03;;;;;;;18.02;7.30;;;1.30;99.90;;;;;;5070271;28;20029;-73
2024/01/19 05:47:30;;;;;;;17.27;8.63;;;;;;;;;;5064087;28;20040;-75
2024/01/19 05:49:56;;;;;;;16.60;9.55;;;;;;;;;;5069202;28;20251;-81
2024/01/19 05:52:22;;;;;;;12.25;6.18;;;;;;;;;;5087006;28;20332;-76
2024/01/19 05:54:48;;;;;;;17.10;9.25;;;;;;;;;;5082691;28;20419;-75
2024/01/19 05:57:14;;;;;;;17.13;9.95;;;;;;;;;;5090389;22;20051;-79
2024/01/19 05:59:40;;;;;;;14.60;7.35;;;;;;;;;;5045529;28;20021;-75
2024/01/19 06:02:06;;;;;;;17.25;8.27;;;;;;;;;;5065595;28;20025;-77
2024/01/19 06:04:33;;;;;;;17.23;9.18;;;;;;;;;;5065199;28;20020;-75
2024/01/19 06:07:00;;;;;;;16.67;8.80;;;1.10;99.90;;;;;;5066017;28;20129;-76
2024/01/19 06:09:26;;;;;;;16.35;8.40;;;;;;;;;;5065800;28;20047;-77
2024/01/19 06:11:51;;;;;;;15.38;7.55;;;1.20;99.90;;;;;;5066370;28;20044;-76
2024/01/19 06:14:17;;;;;;;18.13;8.63;;;;;;;;;;5065780;28;20328;-75
2024/01/19 06:16:43;;;;;;;18.23;8.13;;;1.20;99.90;;;;;;5066004;28;20037;-75
2024/01/19 06:19:08;;;;;;;15.65;8.02;;;1.20;99.90;;;;;;5064140;28;20032;-77
2024/01/19 06:21:34;;;;;;;17.60;8.55;;;;;;;;;;5066002;28;20195;-75
2024/01/19 06:24:00;;;;;;;14.82;7.28;;;;;;;;;;5065340;28;20024;-80
2024/01/19 06:26:32;;;;;;;16.60;7.90;;;;;;;;;;5064851;28;20029;-79
2024/01/19 06:28:58;;;;;;;17.05;8.63;;;;;;;;;;5064192;28;20100;-76
2024/01/19 06:31:24;;;;;;;13.75;7.88;;;;;;;;;;5065728;28;20021;-78
2024/01/19 06:33:50;;;;;;;17.08;8.50;;;;;;;;;;5064966;28;20090;-78
2024/01/19 06:36:16;;;;;;;17.50;8.13;;;1.30;99.90;;;;;;5064829;28;20052;-78
2024/01/19 06:38:42;;;;;;;14.20;6.80;;;;;;;;;;5075149;22;20213;-79
2024/01/19 06:41:08;;;;;;;14.77;7.32;;;;;;;;;;5086671;28;20048;-79
2024/01/19 06:43:34;;;;;;;13.80;7.28;;;;;;;;;;5106111;28;20027;-78
2024/01/19 06:46:00;;;;;;;14.82;7.70;;;;;;;;;;5088378;28;20024;-78
2024/01/19 06:48:26;;;;;;;16.95;7.25;;;;;;;;;;5103051;28;20071;-80
2024/01/19 06:50:52;;;;;;;13.90;6.93;;;;;;;;;;5106421;28;20076;-79
2024/01/19 06:53:18;;;;;;;13.48;6.05;;;;;;;;;;5101706;28;20013;-78
2024/01/19 06:55:45;;;;;;;12.07;6.40;;;1.80;99.90;;;;;;5090907;28;20059;-78
2024/01/19 06:58:12;;;;;;;12.95;6.13;;;;;;;;;;5107392;28;20044;-78
2024/01/19 07:00:38;;;;;;;15.02;7.07;;;;;;;;;;5107299;28;20121;-77
2024/01/19 07:03:04;;;;;;;10.95;6.07;;;;;;;;;;5107125;28;20020;-78
2024/01/19 07:05:30;;;;;;;10.43;5.88;;;2.10;99.90;;;;;;5098546;28;20023;-78
2024/01/19 07:07:58;;;;;;;11.32;5.38;;;;;;;;;;5086087;28;20036;-77
2024/01/19 07:10:24;;;;;;;13.77;6.65;;;;;;;;;;5076823;28;20328;-78
2024/01/19 07:12:51;;;;;;;8.88;4.63;;;2.00;99.90;;;;;;5088703;28;20020;-78
2024/01/19 07:15:16;;;;;;;11.88;6.03;;;2.00;99.90;;;;;;5088647;28;20020;-78
2024/01/19 07:17:42;;;;;;;12.80;6.60;;;;;;;;;;5086497;28;20033;-75
2024/01/19 07:20:09;;;;;;;12.00;6.00;;;;;;;;;;5094977;28;20336;-76
2024/01/19 07:22:35;;;;;;;11.88;5.72;;;1.80;99.90;;;;;;5091559;28;20045;-74
2024/01/19 07:25:00;;;;;;;12.80;6.40;;;1.90;99.90;;;;;;5092516;28;20037;-75
2024/01/19 07:27:26;;;;;;;13.00;6.18;;;;;;;;;;5084847;28;20021;-76
2024/01/19 07:29:52;;;;;;;12.77;5.50;;;;;;;;;;5087047;28;20024;-77
2024/01/19 07:32:24;;;;;;;10.13;5.40;;;1.80;96.70;;;;;;5084811;28;20046;-74
2024/01/19 07:34:50;;;;;;;13.88;5.57;;;;;;;;;;5058880;28;20055;-75
2024/01/19 07:37:16;;;;;;;9.05;5.03;;;;;;;;;;5070089;28;20024;-77
2024/01/19 07:39:42;;;;;;;8.15;4.85;;;;;;;;;;5069241;28;20108;-79
2024/01/19 07:42:08;;;;;;;9.32;4.68;;;1.70;99.90;;;;;;5057575;28;20024;-81
2024/01/19 07:44:33;;;;;;;8.40;4.15;;;1.80;99.90;;;;;;5067326;28;20036;-71
2024/01/19 07:47:00;;;;;;;10.23;5.05;;;1.90;95.00;;;;;;5065957;28;20032;-75
2024/01/19 07:49:26;;;;;;;8.00;4.70;;;2.00;99.90;;;;;;5067178;28;20347;-73
2024/01/19 07:51:51;;;;;;;10.90;5.13;;;2.10;99.90;;;;;;5066101;28;20040;-74
2024/01/19 07:54:20;;;;;;;8.75;4.40;;;2.00;99.90;;;;;;5064743;28;20074;-75
2024/01/19 07:56:46;;;;;;;;;;;2.20;92.30;;;;;;5064477;28;20056;-74
2024/01/19 07:59:12;;;;;;;9.65;5.10;;;;;;;;;;5064990;28;19912;-74
2024/01/19 08:01:40;;;;;;;11.13;4.85;;;2.30;99.90;;;;;;5064610;28;20390;-75
2024/01/19 08:04:06;;;;;;;9.33;5.20;;;;;;;;;;5064618;28;20218;-74
2024/01/19 08:06:33;;;;;;;16.30;5.30;;;;;;;;;;5047219;28;20096;-75
2024/01/19 08:08:59;;;;;;;12.57;5.43;;;;;;;;;;5064442;28;20029;-80
2024/01/19 08:11:26;;;;;;;13.73;6.53;;;2.30;92.20;;;;;;5066578;28;20033;-78
2024/01/19 08:13:53;;;;;;;9.20;5.03;;;;;;;;;;5066252;28;20060;-77
2024/01/19 08:16:19;;;;;;;10.07;5.10;;;2.20;92.20;;;;;;5061428;28;20024;-76
2024/01/19 08:18:45;;;;;;;12.20;4.88;;;2.30;99.90;;;;;;5028939;28;20025;-79
2024/01/19 08:21:11;;;;;;;7.22;4.65;;;;;;;;;;5064262;28;20075;-76
2024/01/19 08:23:37;;;;;;;11.32;5.75;;;1.60;99.90;;;;;;5044281;28;20009;-71
2024/01/19 08:26:06;;;;;;;11.77;6.15;;;2.20;92.20;;;;;;5063031;28;20056;-76
2024/01/19 08:28:32;;;;;;;;;;;2.20;92.40;;;;;;5064560;28;20036;-72
2024/01/19 08:30:58;;;;;;;13.48;5.55;;;;;;;;;;5068786;28;19909;-73
2024/01/19 08:33:25;;;;;;;12.07;5.10;;;;;;;;;;5064202;28;20028;-73
2024/01/19 08:35:51;;;;;;;10.43;4.57;;;;;;;;;;5074562;28;20032;-73
2024/01/19 08:38:17;;;;;;;12.05;6.13;;;;;;;;;;5082274;28;20048;-73
2024/01/19 08:40:43;;;;;;;12.48;6.32;;;;;;;;;;5070227;28;20059;-73
2024/01/19 08:43:09;;;;;;;12.30;6.55;;;1.90;99.90;;;;;;5069558;28;20037;-74
2024/01/19 08:45:35;;;;;;;12.40;6.68;;;;;;;;;;5072630;28;20044;-74
2024/01/19 08:48:02;;;;;;;13.70;6.10;;;;;;;;;;5060973;28;20047;-74
2024/01/19 08:50:28;;;;;;;10.38;6.20;;;;;;;;;;5076716;28;20106;-74
2024/01/19 08:52:55;;;;;;;11.32;5.68;;;;;;;;;;5077870;28;20079;-74
2024/01/19 08:55:21;;;;;;;13.50;6.40;;;;;;;;;;5061721;28;20032;-74
2024/01/19 08:57:47;;;;;;;12.30;6.57;;;;;;;;;;5065441;28;20037;-74
2024/01/19 09:00:13;;;;;;;11.65;6.30;;;;;;;;;;5081575;28;20024;-74
2024/01/19 09:02:39;;;;;;;12.82;6.35;;;1.60;99.90;;;;;;5077342;28;20217;-74
2024/01/19 09:05:05;;;;;;;12.55;5.57;;;1.70;99.90;;;;;;5069320;28;20016;-74
2024/01/19 09:07:31;;;;;;;11.55;6.10;;;;;;;;;;5046675;28;20024;-75
2024/01/19 09:09:57;;;;;;;11.65;6.47;;;;;;;;;;5061309;28;20092;-73
2024/01/19 09:12:23;;;;;;;10.30;6.13;;;1.80;99.90;;;;;;5060839;28;20350;-78
2024/01/19 09:14:49;;;;;;;13.55;7.00;;;;;;;;;;5064551;28;20025;-73
2024/01/19 09:17:15;;;;;;;15.57;7.05;;;;;;;;;;5063561;28;20055;-73
2024/01/19 09:19:41;;;;;;;12.52;6.10;;;;;;;;;;5064374;28;20009;-73
2024/01/19 09:22:07;;;;;;;14.63;6.25;;;2.10;92.50;;;;;;5078099;28;20321;-74
2024/01/19 09:24:34;;;;;;;16.55;6.45;;;;;;;;;;5065060;28;20043;-73
2024/01/19 09:27:00;;;;;;;12.18;6.45;;;;;;;;;;5076606;28;20021;-73
2024/01/19 09:29:26;;;;;;;12.63;6.57;;;;;;;;;;5064476;28;20013;-74
2024/01/19 09:31:52;;;;;;;12.07;5.97;;;;;;;;;;5063301;28;20036;-73
2024/01/19 09:34:18;;;;;;;15.02;7.32;;;;;;;;;;5078508;28;20066;-73
2024/01/19 09:36:44;;;;;;;13.35;6.78;;;;;;;;;;5084023;28;20044;-73
2024/01/19 09:39:11;;;;;;;13.70;8.32;;;;;;;;;;5079329;28;20153;-73
2024/01/19 09:41:46;;;;;;;14.20;7.15;;;1.60;91.50;;;;;;5086200;28;20020;-73
2024/01/19 09:44:12;;;;;;;16.52;7.25;;;;;;;;;;5104809;28;20072;-73
2024/01/19 09:46:51;;;;;;;14.88;7.90;;;1.80;99.90;;;;;;5104518;28;20148;-73
2024/01/19 09:49:19;;;;;;;14.57;7.38;;;1.90;99.90;;;;;;5104574;28;20027;-73
2024/01/19 09:52:12;;;;;;;14.83;7.67;;;1.70;91.30;;;;;;5091902;28;20028;-73
2024/01/19 09:54:40;;;;;;;13.50;7.10;;;;;;;;;;5098380;28;20086;-73
2024/01/19 09:57:05;;;;;;;12.00;6.10;;;1.70;97.50;;;;;;5077945;28;20032;-73
2024/01/19 09:59:33;;;;;;;14.68;7.35;;;1.70;97.30;;;;;;5080657;28;20366;-73
2024/01/19 10:02:00;;;;;;;13.60;6.55;;;1.70;92.90;;;;;;5104423;28;20032;-73
2024/01/19 10:04:27;;;;;;;14.00;7.55;;;1.80;99.90;;;;;;5097977;28;20029;-73
2024/01/19 10:06:54;;;;;;;15.80;7.97;;;1.90;90.00;;;;;;5084309;28;20060;-74
2024/01/19 10:09:20;;;;;;;14.43;7.38;;;2.20;93.30;;;;;;5084670;28;20024;-73
2024/01/19 10:11:50;;;;;;;14.73;8.23;;;2.40;99.90;;;;;;5084253;28;20027;-73
2024/01/19 10:14:16;;;;;;;15.75;8.45;;;2.10;96.50;;;;;;5105402;28;20035;-73
2024/01/19 10:16:45;;;;;;;15.80;8.27;;;2.00;99.50;;;;;;5104753;28;20032;-73
2024/01/19 10:19:13;;;;;;;19.45;7.97;;;2.00;89.10;;;;;;5086920;28;20329;-72
2024/01/19 10:21:39;;;;;;;18.10;8.20;;;;;;;;;;5086751;28;20236;-75
2024/01/19 10:24:15;;;;;;;14.02;7.05;;;2.10;88.50;;;;;;5103493;28;20105;-75
2024/01/19 10:26:50;;;;;;;17.35;8.13;;;2.20;97.30;;;;;;5105028;28;20032;-73
2024/01/19 10:29:17;;;;;;;18.75;8.80;;;2.20;93.90;;;;;;5105024;28;20020;-74
2024/01/19 10:31:47;;;;;;;14.18;7.75;;;2.10;99.00;;;;;;5104673;28;20019;-74
2024/01/19 10:34:30;;;;;;;;;;;2.20;87.60;;;;;;5105832;28;20016;-78
2024/01/19 10:36:56;;;;;;;16.60;7.97;;;;;;;;;;5109039;28;19971;-84
2024/01/19 10:39:29;;;;;;;15.63;8.23;;;2.30;91.50;;;;;;5090507;22;20040;-83
2024/01/19 10:42:05;;;;;;;19.92;9.32;;;2.20;98.50;;;;;;5067651;28;20033;-81
2024/01/19 10:44:32;;;;;;;17.27;8.10;;;2.20;86.40;;;;;;5065754;28;20206;-83
2024/01/19 10:46:58;;;;;;;14.57;7.65;;;2.30;98.50;;;;;;5066888;28;20305;-81
2024/01/19 10:49:24;;;;;;;17.90;10.13;;;;;;;;;;5067104;28;20093;-77
2024/01/19 10:51:51;;;;;;;14.77;7.78;;;2.30;97.80;;;;;;5083225;28;20028;-73
2024/01/19 10:54:25;;;;;;;16.02;8.05;;;2.20;83.90;;;;;;5084438;28;20028;-76
2024/01/19 10:57:04;;;;;;;17.48;8.93;;;2.10;84.30;;;;;;5066626;28;20040;-76
2024/01/19 10:59:30;;;;;;;12.15;5.88;;;2.20;97.60;;;;;;5065594;28;20020;-76
2024/01/19 11:02:00;;;;;;;18.42;8.50;;;2.10;97.70;;;;;;5092045;28;20051;-73
2024/01/19 11:04:27;;;;;;;22.45;10.15;;;1.80;97.70;;;;;;5103065;28;20023;-73
2024/01/19 11:06:53;;;;;;;18.40;9.15;;;;;;;;;;5103097;28;20316;-73
2024/01/19 11:09:19;;;;;;;15.15;8.70;;;;;;;;;;5102942;28;20084;-73
2024/01/19 11:11:52;;;;;;;17.02;8.80;;;2.30;82.50;;;;;;5092617;28;20083;-73
2024/01/19 11:14:18;;;;;;;16.77;8.40;;;;;;;;;;5097740;28;20027;-74
2024/01/19 11:16:48;;;;;;;16.08;7.80;;;2.30;97.20;;;;;;5103178;28;20071;-73
2024/01/19 11:19:16;;;;;;;18.25;9.18;;;2.30;81.80;;;;;;5103414;28;20024;-74
2024/01/19 11:21:43;;;;;;;18.30;9.13;;;2.30;81.50;;;;;;5103030;28;20201;-75
2024/01/19 11:24:09;;;;;;;15.60;8.75;;;;;;;;;;5103199;28;20026;-75
2024/01/19 11:26:49;;;;;;;18.25;8.77;;;2.30;85.60;;;;;;5092134;28;20024;-75
2024/01/19 11:29:25;;;;;;;16.25;8.15;;;2.20;81.60;;;;;;5082471;28;20024;-75
2024/01/19 11:31:51;;;;;;;16.13;9.02;;;2.40;96.60;;;;;;5083312;28;20023;-76
2024/01/19 11:34:41;;;;;;;13.27;7.55;;;2.30;82.00;;;;;;5083305;28;20309;-76
2024/01/19 11:37:08;;;;;;;19.98;9.25;;;2.40;80.70;;;;;;5082537;28;20356;-75
2024/01/19 11:39:41;;;;;;;17.65;8.63;;;2.40;96.30;;;;;;5083035;28;20103;-73
2024/01/19 11:42:27;;;;;;;16.60;8.68;;;2.40;96.70;;;;;;5102382;28;20023;-73
2024/01/19 11:44:53;;;;;;;15.98;8.90;;;;;;;;;;5101930;28;20028;-73
2024/01/19 11:47:37;;;;;;;13.45;7.38;;;2.40;81.00;;;;;;5102104;28;20352;-71
2024/01/19 11:50:05;;;;;;;14.98;7.20;;;2.40;83.80;;;;;;5101920;28;20031;-72
2024/01/19 11:52:35;;;;;;;17.10;8.93;;;2.50;91.40;;;;;;5102307;28;20091;-74
2024/01/19 11:55:26;;;;;;;17.83;10.43;;;2.20;93.90;;;;;;5102655;28;20023;-74
2024/01/19 11:57:52;;;;;;;18.85;8.70;;;2.40;96.40;;;;;;5102598;28;20028;-74
2024/01/19 12:00:19;;;;;;;17.10;8.48;;;;;;;;;;5102590;28;20027;-74
2024/01/19 12:02:46;;;;;;;20.15;8.75;;;2.60;80.60;;;;;;5102256;28;20016;-74
2024/01/19 12:05:12;;;;;;;22.05;9.63;;;;;;;;;;5101285;28;20042;-74
2024/01/19 12:07:39;;;;;;;19.88;9.80;;;;;;;;;;5102070;28;20031;-74
2024/01/19 12:10:15;;;;;;;21.52;9.88;;;3.20;96.20;;;;;;5102090;28;20012;-75
2024/01/19 12:12:41;;;;;;;15.95;8.77;;;2.70;78.30;;;;;;5102139;28;20197;-74
2024/01/19 12:15:09;;;;;;;16.38;8.60;;;2.70;93.10;;;;;;5102205;28;20129;-75
2024/01/19 12:17:37;;;;;;;17.92;8.25;;;2.70;77.90;;;;;;5101857;28;20386;-75
2024/01/19 12:20:06;;;;;;;15.23;8.57;;;2.70;78.20;;;;;;5101881;28;20016;-74
2024/01/19 12:22:32;;;;;;;15.65;8.55;;;;;;;;;;5098032;28;20016;-73
2024/01/19 12:25:14;;;;;;;18.80;9.05;;;2.90;95.20;;;;;;5084839;28;20024;-73
2024/01/19 12:27:40;;;;;;;16.13;8.77;;;2.50;94.70;;;;;;5080884;28;20036;-74
2024/01/19 12:30:19;;;;;;;15.73;6.78;;;2.90;94.90;;;;;;5080647;28;20025;-72
2024/01/19 12:32:46;;;;;;;12.95;5.80;;;2.90;92.60;;;;;;5097419;28;20308;-72
2024/01/19 12:35:12;;;;;;;18.50;8.10;;;;;;;;;;5101003;28;20043;-73
2024/01/19 12:37:38;;;;;;;17.83;8.60;;;;;;;;;;5100907;28;20323;-74
2024/01/19 12:40:20;;;;;;;16.50;9.05;;;3.00;86.30;;;;;;5084158;28;20052;-73
2024/01/19 12:42:45;;;;;;;13.30;6.93;;;3.20;94.20;;;;;;5080714;28;20186;-72
2024/01/19 12:45:12;;;;;;;15.50;8.60;;;;;;;;;;5080537;28;20066;-71
2024/01/19 12:47:45;;;;;;;16.67;7.88;;;3.00;86.20;;;;;;5079414;28;20095;-73
2024/01/19 12:50:11;;;;;;;20.35;9.23;;;3.10;75.00;;;;;;5078996;28;20016;-74
2024/01/19 12:52:37;;;;;;;13.20;7.57;;;;;;;;;;5078073;28;20035;-73
2024/01/19 12:55:04;;;;;;;15.85;7.82;;;;;;;;;;5080147;28;20017;-73
2024/01/19 12:57:30;;;;;;;16.20;8.00;;;;;;;;;;5080484;28;20074;-73
2024/01/19 13:00:16;;;;;;;14.70;8.38;;;2.80;93.10;;;;;;5080671;28;20070;-73
2024/01/19 13:02:42;;;;;;;15.65;6.80;;;2.80;93.70;;;;;;5080655;28;20059;-74
2024/01/19 13:05:24;;;;;;;10.70;6.25;;;3.10;93.30;;;;;;5080717;28;20028;-73
2024/01/19 13:07:53;;;;;;;12.55;6.93;;;2.70;75.20;;;;;;5079460;28;20035;-73
2024/01/19 13:10:20;;;;;;;13.20;6.95;;;2.70;93.20;;;;;;5080637;28;20025;-73
2024/01/19 13:12:48;;;;;;;12.80;6.70;;;2.80;93.00;;;;;;5080535;28;20358;-73
2024/01/19 13:15:16;;;;;;;10.80;6.37;;;2.60;93.50;;;;;;5080539;28;20016;-73
2024/01/19 13:17:43;;;;;;;11.80;6.67;;;;;;;;;;5080484;28;20059;-74
2024/01/19 13:20:21;;;;;;;14.55;7.60;;;2.80;93.30;;;;;;5079000;28;20449;-73
2024/01/19 13:22:47;;;;;;;12.88;6.93;;;2.80;92.40;;;;;;5080413;28;20020;-73
2024/01/19 13:25:13;;;;;;;11.68;6.70;;;;;;;;;;5079024;28;20255;-73
2024/01/19 13:27:40;;;;;;;13.38;6.93;;;;;;;;;;5079174;28;20364;-73
2024/01/19 13:30:06;;;;;;;10.95;6.55;;;3.00;92.30;;;;;;5080184;28;20020;-74
2024/01/19 13:32:34;;;;;;;13.95;6.60;;;3.00;92.60;;;;;;5079050;28;20025;-73
2024/01/19 13:35:00;;;;;;;10.48;5.88;;;;;;;;;;5079043;28;20016;-74
2024/01/19 13:37:27;;;;;;;13.50;6.30;;;;;;;;;;5078821;28;20340;-73
2024/01/19 13:39:54;;;;;;;9.82;5.35;;;2.70;90.20;;;;;;5080012;28;20048;-73
2024/01/19 13:42:21;;;;;;;12.05;6.53;;;;;;;;;;5062764;28;20059;-73
2024/01/19 13:44:47;;;;;;;14.60;7.43;;;2.80;92.00;;;;;;5080196;28;20012;-73
2024/01/19 13:47:13;;;;;;;13.90;6.13;;;2.90;92.50;;;;;;5080174;28;20027;-73